Owen Sound, Canada
Current Conditions -  °F | °C
As of 10:00 PM on Tuesday 25 Nov 2014 (Local Time) from CYVV Reporting Station
Overcast Overcast  
Wind Chill: 26°   Ceiling: 3800
Heat Index: 32°   Visibility: 15mi
Dew Point: 27°   Wind: 6mph
Humidity: 80%   Direction: 300°WNW
Pressure: 30.11"   Gusts: NA
Location:  44.56°N, 80.94°W
Report Text: CYVV 260300Z 30005KT 280V340 15SM OVC038 M00/M03 A3011 RMK SC8 SLP204
Loading
Personal Weather Stations






























Interactive Weather Map New forecast layout! Learn more

10-Day Weather Forecast

Advertisements
Track Severe Weather on mobile